createdAt,value
2023-03-27T00:00:16.697Z,99255.53
2023-03-27T00:02:46.939Z,99263.69
2023-03-27T00:05:16.465Z,99258.91
2023-03-27T00:07:44.555Z,99279.47
2023-03-27T00:10:13.476Z,99279.66
2023-03-27T00:12:44.483Z,99284.13
2023-03-27T00:15:17.698Z,99297.44
2023-03-27T00:17:50.354Z,99295.38
2023-03-27T00:20:23.142Z,99294.78
2023-03-27T00:22:55.656Z,99312.88
2023-03-27T00:25:27.670Z,99313.22
2023-03-27T00:28:03.191Z,99322.00
2023-03-27T00:30:33.859Z,99327.22
2023-03-27T00:33:02.492Z,99315.63
2023-03-27T00:35:33.084Z,99335.44
2023-03-27T00:38:04.102Z,99339.16
2023-03-27T00:40:33.243Z,99335.84
2023-03-27T00:43:01.631Z,99335.09
2023-03-27T00:45:31.682Z,99347.19
2023-03-27T00:48:03.546Z,99343.88
2023-03-27T00:50:34.242Z,99356.66
2023-03-27T00:53:05.204Z,99347.25
2023-03-27T00:55:34.881Z,99348.09
2023-03-27T00:58:05.423Z,99348.94
2023-03-27T01:00:34.362Z,99350.66
2023-03-27T01:03:06.146Z,99365.41
2023-03-27T01:05:36.082Z,99369.88
2023-03-27T01:08:13.004Z,99381.41
2023-03-27T01:10:52.608Z,99394.31
2023-03-27T01:13:28.656Z,99404.03
2023-03-27T01:16:00.206Z,99401.75
2023-03-27T01:18:37.150Z,99419.28
2023-03-27T01:21:26.613Z,99433.13
2023-03-27T01:24:15.014Z,99429.34
2023-03-27T01:27:10.891Z,99438.34
2023-03-27T01:29:45.800Z,99446.50
2023-03-27T01:32:38.918Z,99461.25
2023-03-27T01:35:22.218Z,99452.56
2023-03-27T01:38:01.047Z,99464.41
2023-03-27T01:40:33.965Z,99480.13
2023-03-27T01:43:04.755Z,99474.66
2023-03-27T01:45:36.745Z,99493.31
2023-03-27T01:48:08.365Z,99506.41
2023-03-27T01:50:40.578Z,99518.53
2023-03-27T01:53:13.906Z,99524.66
2023-03-27T01:55:49.273Z,99544.34
2023-03-27T01:58:19.264Z,99541.06
2023-03-27T02:00:53.381Z,99547.56
2023-03-27T02:03:28.432Z,99552.72
2023-03-27T02:05:58.766Z,99559.22
2023-03-27T02:08:31.968Z,99562.78
2023-03-27T02:11:12.213Z,99571.13
2023-03-27T02:13:44.757Z,99583.00
2023-03-27T02:16:16.084Z,99574.91
2023-03-27T02:18:47.825Z,99579.66
2023-03-27T02:21:16.750Z,99586.91
2023-03-27T02:23:47.852Z,99592.28
2023-03-27T02:26:19.252Z,99592.00
2023-03-27T02:28:57.340Z,99598.59
2023-03-27T02:31:41.297Z,99601.91
2023-03-27T02:34:27.590Z,99612.28
2023-03-27T02:37:02.554Z,99608.50
2023-03-27T02:39:55.384Z,99624.44
2023-03-27T02:42:28.938Z,99621.97
2023-03-27T02:45:06.802Z,99635.50
2023-03-27T02:47:38.667Z,99637.66
2023-03-27T02:50:09.665Z,99648.97
2023-03-27T02:52:42.380Z,99646.66
2023-03-27T02:55:14.686Z,99644.88
2023-03-27T02:57:52.456Z,99655.81
2023-03-27T03:00:40.549Z,99662.06
2023-03-27T03:03:38.169Z,99665.19
2023-03-27T03:06:15.163Z,99668.84
2023-03-27T03:08:46.694Z,99680.59
2023-03-27T03:11:15.995Z,99683.09
2023-03-27T03:13:45.224Z,99688.09
2023-03-27T03:16:13.555Z,99699.31
2023-03-27T03:18:41.840Z,99707.56
2023-03-27T03:21:10.794Z,99714.88
2023-03-27T03:23:40.557Z,99723.16
2023-03-27T03:26:09.725Z,99724.41
2023-03-27T03:29:00.743Z,99734.75
2023-03-27T03:31:43.593Z,99728.72
2023-03-27T03:34:14.547Z,99748.94
2023-03-27T03:36:44.873Z,99749.28
2023-03-27T03:39:13.411Z,99751.44
2023-03-27T03:41:42.472Z,99763.78
2023-03-27T03:44:14.244Z,99765.81
2023-03-27T03:46:45.121Z,99771.59
2023-03-27T03:49:14.091Z,99778.50
2023-03-27T03:51:42.239Z,99791.75
2023-03-27T03:54:10.505Z,99787.56
2023-03-27T03:56:41.437Z,99796.31
2023-03-27T03:59:10.159Z,99801.41
2023-03-27T04:01:41.629Z,99815.88
2023-03-27T04:04:10.175Z,99825.91
2023-03-27T04:07:02.287Z,99826.59
2023-03-27T04:09:35.403Z,99832.06
2023-03-27T04:12:14.084Z,99837.31
2023-03-27T04:14:52.124Z,99840.84
2023-03-27T04:17:42.411Z,99847.44
2023-03-27T04:20:14.917Z,99855.63
2023-03-27T04:22:46.779Z,99865.16
2023-03-27T04:25:21.881Z,99876.28
2023-03-27T04:27:51.916Z,99879.09
2023-03-27T04:30:25.076Z,99886.31
2023-03-27T04:33:19.484Z,99884.00
2023-03-27T04:36:11.752Z,99892.41
2023-03-27T04:38:48.160Z,99899.44
2023-03-27T04:41:18.956Z,99909.50
2023-03-27T04:43:47.416Z,99912.13
2023-03-27T04:46:15.681Z,99917.34
2023-03-27T04:48:49.314Z,99922.03
2023-03-27T04:51:32.705Z,99925.97
2023-03-27T04:54:05.091Z,99935.28
2023-03-27T04:56:35.927Z,99935.50
2023-03-27T04:59:04.769Z,99949.03
2023-03-27T05:01:34.162Z,99957.66
2023-03-27T05:04:15.515Z,99955.16
2023-03-27T05:07:03.879Z,99958.66
2023-03-27T05:09:32.707Z,99967.97
2023-03-27T05:12:01.336Z,99972.06
2023-03-27T05:14:36.808Z,99979.78
2023-03-27T05:17:15.521Z,99973.91
2023-03-27T05:19:49.621Z,99981.78
2023-03-27T05:22:19.545Z,99983.44
2023-03-27T05:24:54.006Z,100002.22
2023-03-27T05:27:22.974Z,100001.41
2023-03-27T05:29:55.853Z,100007.25
2023-03-27T05:32:26.212Z,100024.59
2023-03-27T05:35:11.387Z,100028.84
2023-03-27T05:37:48.000Z,100034.75
2023-03-27T05:40:34.298Z,100039.50
2023-03-27T05:43:04.280Z,100039.19
2023-03-27T05:45:33.641Z,100042.09
2023-03-27T05:48:03.544Z,100051.47
2023-03-27T05:50:40.616Z,100057.09
2023-03-27T05:53:16.944Z,100055.63
2023-03-27T05:56:09.487Z,100065.41
2023-03-27T05:58:50.116Z,100067.31
2023-03-27T06:01:19.025Z,100073.19
2023-03-27T06:03:49.172Z,100079.59
2023-03-27T06:06:24.676Z,100078.78
2023-03-27T06:08:59.405Z,100089.31
2023-03-27T06:11:29.208Z,100096.31
2023-03-27T06:13:59.433Z,100104.47
2023-03-27T06:16:43.746Z,100101.97
2023-03-27T06:19:38.973Z,100116.13
2023-03-27T06:22:09.864Z,100128.63
2023-03-27T06:24:39.922Z,100130.50
2023-03-27T06:27:10.825Z,100137.03
2023-03-27T06:29:44.271Z,100139.63
2023-03-27T06:32:14.140Z,100151.94
2023-03-27T06:34:50.263Z,100157.97
2023-03-27T06:37:42.372Z,100156.00
2023-03-27T06:40:20.298Z,100162.28
2023-03-27T06:42:52.233Z,100175.00
2023-03-27T06:45:26.276Z,100172.59
2023-03-27T06:48:21.843Z,100186.53
2023-03-27T06:50:55.073Z,100176.06
2023-03-27T06:53:27.942Z,100179.88
2023-03-27T06:55:57.486Z,100183.13
2023-03-27T06:58:28.681Z,100188.09
2023-03-27T07:00:57.756Z,100195.53
2023-03-27T07:03:38.694Z,100206.53
2023-03-27T07:06:25.287Z,100212.09
2023-03-27T07:09:01.149Z,100225.47
2023-03-27T07:11:32.020Z,100216.63
2023-03-27T07:14:08.694Z,100236.38
2023-03-27T07:16:37.441Z,100234.88
2023-03-27T07:19:06.086Z,100239.25
2023-03-27T07:21:37.259Z,100238.47
2023-03-27T07:24:10.946Z,100249.16
2023-03-27T07:26:40.042Z,100258.97
2023-03-27T07:29:14.178Z,100261.13
2023-03-27T07:31:57.633Z,100260.19
2023-03-27T07:34:42.694Z,100264.63
2023-03-27T07:37:30.252Z,100279.31
2023-03-27T07:40:29.462Z,100280.56
2023-03-27T07:43:23.754Z,100287.81
2023-03-27T07:45:51.898Z,100288.56
2023-03-27T07:48:19.627Z,100288.50
2023-03-27T07:50:49.012Z,100285.56
2023-03-27T07:53:32.699Z,100295.66
2023-03-27T07:56:14.168Z,100293.53
2023-03-27T07:58:45.306Z,100297.28
2023-03-27T08:01:20.444Z,100302.78
2023-03-27T08:03:50.942Z,100296.69
2023-03-27T08:06:21.590Z,100299.34
2023-03-27T08:08:51.187Z,100305.34
2023-03-27T08:11:30.370Z,100306.91
2023-03-27T08:13:59.766Z,100313.28
2023-03-27T08:16:32.133Z,100316.09
2023-03-27T08:19:03.387Z,100315.50
2023-03-27T08:21:35.012Z,100311.50
2023-03-27T08:24:05.691Z,100308.53
2023-03-27T08:26:39.441Z,100323.38
2023-03-27T08:29:11.310Z,100333.53
2023-03-27T08:31:39.807Z,100331.91
2023-03-27T08:34:08.999Z,100340.69
2023-03-27T08:36:48.691Z,100339.94
2023-03-27T08:39:23.249Z,100342.34
2023-03-27T08:42:03.960Z,100352.34
2023-03-27T08:44:34.593Z,100347.44
2023-03-27T08:47:17.950Z,100355.78
2023-03-27T08:49:55.895Z,100357.09
2023-03-27T08:52:33.386Z,100355.34
2023-03-27T08:55:09.357Z,100361.78
2023-03-27T08:57:45.809Z,100367.03
2023-03-27T09:00:23.840Z,100363.72
2023-03-27T09:03:03.188Z,100369.06
2023-03-27T09:05:37.028Z,100351.69
2023-03-27T09:08:13.402Z,100372.56
2023-03-27T09:10:45.322Z,100367.47
2023-03-27T09:13:29.158Z,100384.00
2023-03-27T09:15:59.878Z,100369.59
2023-03-27T09:18:31.742Z,100367.25
2023-03-27T09:21:05.414Z,100368.34
2023-03-27T09:23:36.510Z,100365.59
2023-03-27T09:26:18.256Z,100361.94
2023-03-27T09:28:58.793Z,100364.81
2023-03-27T09:31:32.337Z,100364.03
2023-03-27T09:34:06.790Z,100366.03
2023-03-27T09:36:37.292Z,100354.63
2023-03-27T09:39:08.163Z,100362.59
2023-03-27T09:41:41.216Z,100368.28
2023-03-27T09:44:13.417Z,100367.63
2023-03-27T09:46:49.001Z,100373.13
2023-03-27T09:49:19.775Z,100368.84
2023-03-27T09:51:55.508Z,100365.19
2023-03-27T09:54:56.344Z,100367.81
2023-03-27T09:57:34.054Z,100367.88
2023-03-27T10:00:15.539Z,100377.03
2023-03-27T10:03:00.529Z,100381.19
2023-03-27T10:05:32.164Z,100373.59
2023-03-27T10:08:01.522Z,100359.09
2023-03-27T10:10:49.126Z,100368.75
2023-03-27T10:13:32.633Z,100376.38
2023-03-27T10:16:05.785Z,100381.78
2023-03-27T10:18:47.488Z,100376.28
2023-03-27T10:21:21.305Z,100386.84
2023-03-27T10:23:51.796Z,100373.09
2023-03-27T10:26:38.767Z,100370.56
2023-03-27T10:29:20.125Z,100381.69
2023-03-27T10:31:54.079Z,100387.84
2023-03-27T10:34:43.504Z,100389.59
2023-03-27T10:37:31.941Z,100393.75
2023-03-27T10:40:17.852Z,100392.41
2023-03-27T10:42:49.988Z,100414.34
2023-03-27T10:45:19.780Z,100402.16
2023-03-27T10:47:55.076Z,100411.59
2023-03-27T10:50:27.455Z,100407.44
2023-03-27T10:53:02.194Z,100415.13
2023-03-27T10:55:44.977Z,100417.88
2023-03-27T10:58:24.693Z,100408.81
2023-03-27T11:00:56.732Z,100426.25
2023-03-27T11:03:29.746Z,100425.13
2023-03-27T11:06:06.588Z,100416.63
2023-03-27T11:08:45.694Z,100414.69
2023-03-27T11:11:16.116Z,100416.97
2023-03-27T11:13:49.865Z,100411.69
2023-03-27T11:16:24.662Z,100415.00
2023-03-27T11:19:29.931Z,100420.47
2023-03-27T11:22:30.169Z,100424.53
2023-03-27T11:25:04.835Z,100435.28
2023-03-27T11:27:37.162Z,100430.84
2023-03-27T11:30:27.973Z,100429.38
2023-03-27T11:33:26.654Z,100435.63
2023-03-27T11:36:09.270Z,100425.44
2023-03-27T11:38:51.553Z,100420.72
2023-03-27T11:41:21.869Z,100434.47
2023-03-27T11:43:50.305Z,100433.31
2023-03-27T11:46:59.930Z,100429.38
2023-03-27T11:49:37.496Z,100438.16
2023-03-27T11:52:14.173Z,100433.19
2023-03-27T11:55:16.577Z,100438.50
2023-03-27T11:57:52.855Z,100421.22
2023-03-27T12:00:56.234Z,100445.84
2023-03-27T12:03:55.488Z,100450.19
2023-03-27T12:06:37.673Z,100455.66
2023-03-27T12:09:18.256Z,100473.88
2023-03-27T12:12:16.020Z,100463.03
2023-03-27T12:14:54.953Z,100468.25
2023-03-27T12:17:43.604Z,100462.00
2023-03-27T12:20:22.535Z,100465.22
2023-03-27T12:23:01.868Z,100457.59
2023-03-27T12:26:11.234Z,100457.84
2023-03-27T12:29:27.967Z,100459.41
2023-03-27T12:32:08.177Z,100463.81
2023-03-27T12:34:50.689Z,100478.13
2023-03-27T12:37:20.265Z,100487.75
2023-03-27T12:39:51.963Z,100479.09
2023-03-27T12:42:44.205Z,100484.53
2023-03-27T12:45:20.053Z,100480.78
2023-03-27T12:48:10.436Z,100476.72
2023-03-27T12:50:48.325Z,100472.66
2023-03-27T12:53:32.246Z,100475.69
2023-03-27T12:56:26.933Z,100470.78
2023-03-27T12:58:57.986Z,100477.38
2023-03-27T13:01:52.238Z,100489.91
2023-03-27T13:04:41.408Z,100493.28
2023-03-27T13:07:20.708Z,100506.63
2023-03-27T13:10:13.919Z,100494.25
2023-03-27T13:13:02.921Z,100490.41
2023-03-27T13:15:41.385Z,100495.53
2023-03-27T13:18:27.206Z,100485.09
2023-03-27T13:21:02.094Z,100486.47
2023-03-27T13:23:41.103Z,100486.28
2023-03-27T13:26:36.100Z,100489.78
2023-03-27T13:29:12.424Z,100479.41
2023-03-27T13:32:00.327Z,100497.25
2023-03-27T13:35:05.265Z,100487.19
2023-03-27T13:37:48.469Z,100492.16
2023-03-27T13:40:26.901Z,100494.06
2023-03-27T13:43:12.374Z,100492.25
2023-03-27T13:45:50.471Z,100484.22
2023-03-27T13:48:50.886Z,100483.28
2023-03-27T13:51:42.234Z,100482.41
2023-03-27T13:54:32.268Z,100489.34
2023-03-27T13:57:14.129Z,100478.88
2023-03-27T14:00:19.532Z,100494.22
2023-03-27T14:03:11.227Z,100491.41
2023-03-27T14:06:06.306Z,100479.84
2023-03-27T14:08:48.581Z,100495.91
2023-03-27T14:11:52.573Z,100502.06
2023-03-27T14:14:51.458Z,100491.00
2023-03-27T14:17:39.277Z,100478.31
2023-03-27T14:20:16.640Z,100495.16
2023-03-27T14:22:50.099Z,100477.13
2023-03-27T14:25:24.627Z,100521.31
2023-03-27T14:27:59.291Z,100518.00
2023-03-27T14:30:27.876Z,100539.16
2023-03-27T14:33:19.947Z,100535.78
2023-03-27T14:35:55.401Z,100538.69
2023-03-27T14:38:25.407Z,100544.41
2023-03-27T14:40:57.224Z,100550.94
2023-03-27T14:43:46.005Z,100545.28
2023-03-27T14:46:16.013Z,100529.38
2023-03-27T14:48:47.373Z,100530.91
2023-03-27T14:51:19.634Z,100533.19
2023-03-27T14:53:50.961Z,100531.94
2023-03-27T14:56:47.852Z,100536.53
2023-03-27T14:59:37.530Z,100536.34
2023-03-27T15:02:13.559Z,100537.47
2023-03-27T15:04:44.065Z,100542.19
2023-03-27T15:07:18.753Z,100542.59
2023-03-27T15:10:24.388Z,100533.25
2023-03-27T15:12:53.116Z,100533.59
2023-03-27T15:15:25.505Z,100540.56
2023-03-27T15:17:58.811Z,100530.13
2023-03-27T15:20:31.989Z,100528.66
2023-03-27T15:23:02.934Z,100547.16
2023-03-27T15:25:36.528Z,100553.38
2023-03-27T15:28:09.159Z,100565.44
2023-03-27T15:30:44.159Z,100564.94
2023-03-27T15:33:20.537Z,100574.25
2023-03-27T15:35:52.669Z,100572.16
2023-03-27T15:38:26.831Z,100579.03
2023-03-27T15:41:00.774Z,100580.81
2023-03-27T15:43:29.350Z,100577.81
2023-03-27T15:46:02.718Z,100574.53
2023-03-27T15:48:33.712Z,100576.78
2023-03-27T15:51:04.239Z,100573.78
2023-03-27T15:53:36.649Z,100576.03
2023-03-27T15:56:07.361Z,100568.06
2023-03-27T15:58:46.108Z,100571.97
2023-03-27T16:01:19.748Z,100568.78
2023-03-27T16:03:50.912Z,100573.09
2023-03-27T16:06:28.651Z,100570.84
2023-03-27T16:08:57.207Z,100573.81
2023-03-27T16:11:42.887Z,100574.38
2023-03-27T16:14:24.819Z,100584.84
2023-03-27T16:16:55.683Z,100585.34
2023-03-27T16:19:23.830Z,100581.72
2023-03-27T16:21:57.351Z,100578.56
2023-03-27T16:24:25.894Z,100592.28
2023-03-27T16:26:55.018Z,100590.59
2023-03-27T16:29:24.479Z,100592.31
2023-03-27T16:31:53.031Z,100600.38
2023-03-27T16:34:22.116Z,100599.81
2023-03-27T16:36:51.592Z,100602.84
2023-03-27T16:39:20.858Z,100599.44
2023-03-27T16:41:49.492Z,100603.34
2023-03-27T16:44:18.769Z,100597.22
2023-03-27T16:46:47.741Z,100604.19
2023-03-27T16:49:15.781Z,100614.94
2023-03-27T16:51:50.063Z,100623.09
2023-03-27T16:54:18.184Z,100614.66
2023-03-27T16:56:47.969Z,100620.13
2023-03-27T16:59:18.591Z,100621.78
2023-03-27T17:01:46.683Z,100628.91
2023-03-27T17:04:14.965Z,100631.41
2023-03-27T17:06:44.825Z,100647.78
2023-03-27T17:09:15.734Z,100647.78
2023-03-27T17:11:44.144Z,100655.47
2023-03-27T17:14:22.193Z,100668.22
2023-03-27T17:16:51.553Z,100677.69
2023-03-27T17:19:21.222Z,100676.44
2023-03-27T17:21:49.761Z,100672.72
2023-03-27T17:24:21.876Z,100683.59
2023-03-27T17:26:51.129Z,100674.91
2023-03-27T17:29:21.408Z,100673.28
2023-03-27T17:31:49.552Z,100674.81
2023-03-27T17:34:20.384Z,100682.34
2023-03-27T17:36:54.285Z,100691.56
2023-03-27T17:39:26.080Z,100685.41
2023-03-27T17:41:55.214Z,100688.41
2023-03-27T17:44:27.923Z,100689.44
2023-03-27T17:46:58.066Z,100694.50
2023-03-27T17:49:26.374Z,100693.03
2023-03-27T17:51:55.138Z,100709.13
2023-03-27T17:54:23.509Z,100716.75
2023-03-27T17:56:53.665Z,100720.09
2023-03-27T17:59:26.030Z,100714.91
2023-03-27T18:01:55.892Z,100723.31
2023-03-27T18:04:26.562Z,100714.66
2023-03-27T18:06:54.608Z,100735.03
2023-03-27T18:09:24.207Z,100716.31
2023-03-27T18:11:53.959Z,100730.94
2023-03-27T18:14:22.674Z,100735.91
2023-03-27T18:16:50.925Z,100738.47
2023-03-27T18:19:31.857Z,100743.78
2023-03-27T18:22:00.638Z,100740.38
2023-03-27T18:24:29.564Z,100747.22
2023-03-27T18:26:57.521Z,100753.13
2023-03-27T18:29:25.503Z,100754.81
2023-03-27T18:31:54.830Z,100755.84
2023-03-27T18:34:27.638Z,100762.03
2023-03-27T18:36:59.456Z,100769.06
2023-03-27T18:39:29.723Z,100760.03
2023-03-27T18:42:01.900Z,100772.31
2023-03-27T18:44:31.314Z,100779.19
2023-03-27T18:47:00.853Z,100773.66
2023-03-27T18:49:29.673Z,100776.44
2023-03-27T18:51:59.555Z,100778.09
2023-03-27T18:54:29.660Z,100782.38
2023-03-27T18:57:00.322Z,100772.41
2023-03-27T18:59:29.572Z,100783.53
2023-03-27T19:01:58.537Z,100789.28
2023-03-27T19:04:27.594Z,100786.91
2023-03-27T19:06:55.520Z,100778.44
2023-03-27T19:09:40.970Z,100783.53
2023-03-27T19:12:10.930Z,100779.22
2023-03-27T19:15:19.759Z,100787.47
2023-03-27T19:18:07.628Z,100785.53
2023-03-27T19:20:56.314Z,100785.47
2023-03-27T19:23:42.758Z,100787.84
2023-03-27T19:26:18.570Z,100789.44
2023-03-27T19:28:48.292Z,100790.16
2023-03-27T19:31:19.082Z,100799.53
2023-03-27T19:33:47.113Z,100796.13
2023-03-27T19:36:15.879Z,100796.97
2023-03-27T19:38:44.744Z,100794.41
2023-03-27T19:41:15.402Z,100795.28
2023-03-27T19:43:45.913Z,100799.63
2023-03-27T19:46:16.653Z,100804.78
2023-03-27T19:48:54.838Z,100803.03
2023-03-27T19:51:35.014Z,100815.03
2023-03-27T19:54:07.055Z,100813.44
2023-03-27T19:56:37.264Z,100815.13
2023-03-27T19:59:17.846Z,100814.41
2023-03-27T20:01:53.435Z,100813.56
2023-03-27T20:04:21.877Z,100818.81
2023-03-27T20:06:52.515Z,100821.31
2023-03-27T20:09:21.659Z,100827.31
2023-03-27T20:11:51.873Z,100838.56
2023-03-27T20:14:20.043Z,100833.59
2023-03-27T20:16:49.271Z,100846.69
2023-03-27T20:19:21.573Z,100839.66
2023-03-27T20:21:53.481Z,100843.22
2023-03-27T20:24:23.225Z,100845.13
2023-03-27T20:27:03.859Z,100846.91
2023-03-27T20:29:31.995Z,100836.66
2023-03-27T20:32:00.869Z,100851.25
2023-03-27T20:34:29.419Z,100846.28
2023-03-27T20:36:59.092Z,100857.47
2023-03-27T20:39:47.413Z,100855.16
2023-03-27T20:42:18.326Z,100855.22
2023-03-27T20:44:47.161Z,100855.41
2023-03-27T20:47:19.360Z,100857.75
2023-03-27T20:49:48.831Z,100863.16
2023-03-27T20:52:19.102Z,100859.13
2023-03-27T20:54:47.922Z,100869.38
2023-03-27T20:57:23.062Z,100854.81
2023-03-27T20:59:52.800Z,100857.34
2023-03-27T21:02:22.065Z,100863.09
2023-03-27T21:04:50.349Z,100863.16
2023-03-27T21:07:18.583Z,100860.78
2023-03-27T21:09:47.178Z,100863.41
2023-03-27T21:12:15.167Z,100867.63
2023-03-27T21:14:46.078Z,100865.25
2023-03-27T21:17:24.286Z,100865.25
2023-03-27T21:19:52.758Z,100871.16
2023-03-27T21:22:24.237Z,100867.00
2023-03-27T21:24:52.825Z,100866.88
2023-03-27T21:27:21.314Z,100862.75
2023-03-27T21:29:52.150Z,100873.88
2023-03-27T21:32:21.495Z,100873.03
2023-03-27T21:34:51.809Z,100872.25
2023-03-27T21:37:20.313Z,100874.94
2023-03-27T21:39:49.311Z,100881.00
2023-03-27T21:42:22.198Z,100874.25
2023-03-27T21:44:55.718Z,100879.44
2023-03-27T21:47:34.408Z,100881.19
2023-03-27T21:50:10.087Z,100886.19
2023-03-27T21:52:38.894Z,100887.09
2023-03-27T21:55:09.120Z,100888.06
2023-03-27T21:57:38.660Z,100897.19
2023-03-27T22:00:14.790Z,100899.56
2023-03-27T22:02:43.658Z,100895.75
2023-03-27T22:05:12.773Z,100893.84
2023-03-27T22:07:42.078Z,100893.97
2023-03-27T22:10:12.200Z,100896.72
2023-03-27T22:12:42.286Z,100892.13
2023-03-27T22:15:12.764Z,100898.25
2023-03-27T22:17:42.481Z,100900.81
2023-03-27T22:20:13.175Z,100901.78
2023-03-27T22:22:51.006Z,100905.13
2023-03-27T22:25:19.682Z,100904.28
2023-03-27T22:27:49.302Z,100907.69
2023-03-27T22:30:20.875Z,100918.13
2023-03-27T22:32:49.972Z,100919.25
2023-03-27T22:35:20.329Z,100923.63
2023-03-27T22:37:49.655Z,100922.91
2023-03-27T22:40:20.929Z,100926.31
2023-03-27T22:42:49.133Z,100928.00
2023-03-27T22:45:19.893Z,100922.88
2023-03-27T22:47:48.964Z,100922.72
2023-03-27T22:50:17.724Z,100926.53
2023-03-27T22:52:45.987Z,100928.34
2023-03-27T22:55:13.837Z,100933.44
2023-03-27T22:57:42.354Z,100939.44
2023-03-27T23:00:11.388Z,100935.31
2023-03-27T23:02:41.769Z,100938.84
2023-03-27T23:05:11.270Z,100934.56
2023-03-27T23:07:39.897Z,100936.41
2023-03-27T23:10:09.840Z,100936.50
2023-03-27T23:12:38.142Z,100942.59
2023-03-27T23:15:07.320Z,100946.81
2023-03-27T23:17:35.495Z,100949.31
2023-03-27T23:20:06.437Z,100951.16
2023-03-27T23:22:34.826Z,100954.69
2023-03-27T23:25:03.179Z,100959.84
2023-03-27T23:27:31.591Z,100960.66
2023-03-27T23:30:00.274Z,100953.00
2023-03-27T23:32:29.247Z,100960.69
2023-03-27T23:34:57.408Z,100959.78
2023-03-27T23:37:28.391Z,100963.22
2023-03-27T23:39:57.220Z,100973.50
2023-03-27T23:42:30.940Z,100972.59
2023-03-27T23:44:59.136Z,100985.47
2023-03-27T23:47:27.301Z,100983.78
2023-03-27T23:49:55.771Z,100978.66
2023-03-27T23:52:29.245Z,100987.25
2023-03-27T23:54:57.986Z,100994.03
2023-03-27T23:57:27.337Z,100989.84
2023-03-27T23:59:57.390Z,100995.91
